sensor_id;sensor_type;location;lat;lon;timestamp;P1;durP1;ratioP1;P2;durP2;ratioP2
71164;SDS011;58859;55.132;-1.586;2022-12-15T00:00:57;1.55;;;1.33;;
71164;SDS011;58859;55.132;-1.586;2022-12-15T00:03:42;2.63;;;1.55;;
71164;SDS011;58859;55.132;-1.586;2022-12-15T00:06:26;2.27;;;1.10;;
71164;SDS011;58859;55.132;-1.586;2022-12-15T00:09:10;3.25;;;2.42;;
71164;SDS011;58859;55.132;-1.586;2022-12-15T00:11:53;2.00;;;1.60;;
71164;SDS011;58859;55.132;-1.586;2022-12-15T00:14:37;4.43;;;1.13;;
71164;SDS011;58859;55.132;-1.586;2022-12-15T00:17:21;4.40;;;1.65;;
71164;SDS011;58859;55.132;-1.586;2022-12-15T00:20:05;3.30;;;1.47;;
71164;SDS011;58859;55.132;-1.586;2022-12-15T00:22:49;1.05;;;1.05;;
71164;SDS011;58859;55.132;-1.586;2022-12-15T00:25:33;7.68;;;1.80;;
71164;SDS011;58859;55.132;-1.586;2022-12-15T00:28:17;1.30;;;1.13;;
71164;SDS011;58859;55.132;-1.586;2022-12-15T00:31:01;1.88;;;1.42;;
71164;SDS011;58859;55.132;-1.586;2022-12-15T00:33:45;4.00;;;1.27;;
71164;SDS011;58859;55.132;-1.586;2022-12-15T00:36:29;1.52;;;1.20;;
71164;SDS011;58859;55.132;-1.586;2022-12-15T00:39:13;5.60;;;2.45;;
71164;SDS011;58859;55.132;-1.586;2022-12-15T00:41:38;4.10;;;1.90;;
71164;SDS011;58859;55.132;-1.586;2022-12-15T00:44:04;5.40;;;2.50;;
71164;SDS011;58859;55.132;-1.586;2022-12-15T00:46:29;3.22;;;2.08;;
71164;SDS011;58859;55.132;-1.586;2022-12-15T00:49:13;1.57;;;1.27;;
71164;SDS011;58859;55.132;-1.586;2022-12-15T00:51:57;1.95;;;1.48;;
71164;SDS011;58859;55.132;-1.586;2022-12-15T00:54:41;1.65;;;1.52;;
71164;SDS011;58859;55.132;-1.586;2022-12-15T00:57:25;2.00;;;1.40;;
71164;SDS011;58859;55.132;-1.586;2022-12-15T01:00:09;3.10;;;2.00;;
71164;SDS011;58859;55.132;-1.586;2022-12-15T01:02:54;4.57;;;1.80;;
71164;SDS011;58859;55.132;-1.586;2022-12-15T01:05:38;1.20;;;1.10;;
71164;SDS011;58859;55.132;-1.586;2022-12-15T01:08:22;3.00;;;1.85;;
71164;SDS011;58859;55.132;-1.586;2022-12-15T01:11:06;1.35;;;1.23;;
71164;SDS011;58859;55.132;-1.586;2022-12-15T01:13:50;1.55;;;1.55;;
71164;SDS011;58859;55.132;-1.586;2022-12-15T01:16:34;7.53;;;2.10;;
71164;SDS011;58859;55.132;-1.586;2022-12-15T01:19:18;2.97;;;1.50;;
71164;SDS011;58859;55.132;-1.586;2022-12-15T01:22:02;2.20;;;1.80;;
71164;SDS011;58859;55.132;-1.586;2022-12-15T01:24:27;7.80;;;1.73;;
71164;SDS011;58859;55.132;-1.586;2022-12-15T01:26:52;3.33;;;2.40;;
71164;SDS011;58859;55.132;-1.586;2022-12-15T01:29:18;1.90;;;1.63;;
71164;SDS011;58859;55.132;-1.586;2022-12-15T01:31:43;2.90;;;1.17;;
71164;SDS011;58859;55.132;-1.586;2022-12-15T01:34:09;2.53;;;1.87;;
71164;SDS011;58859;55.132;-1.586;2022-12-15T01:36:34;4.23;;;2.43;;
71164;SDS011;58859;55.132;-1.586;2022-12-15T01:39:00;1.87;;;1.60;;
71164;SDS011;58859;55.132;-1.586;2022-12-15T01:41:25;1.85;;;1.23;;
71164;SDS011;58859;55.132;-1.586;2022-12-15T01:43:51;1.97;;;1.73;;
71164;SDS011;58859;55.132;-1.586;2022-12-15T01:46:18;2.33;;;1.70;;
71164;SDS011;58859;55.132;-1.586;2022-12-15T01:48:46;2.72;;;1.70;;
71164;SDS011;58859;55.132;-1.586;2022-12-15T01:51:36;2.97;;;1.70;;
71164;SDS011;58859;55.132;-1.586;2022-12-15T01:54:05;3.90;;;1.48;;
71164;SDS011;58859;55.132;-1.586;2022-12-15T01:56:36;1.20;;;1.10;;
71164;SDS011;58859;55.132;-1.586;2022-12-15T01:59:02;2.70;;;1.80;;
71164;SDS011;58859;55.132;-1.586;2022-12-15T02:01:29;3.90;;;2.53;;
71164;SDS011;58859;55.132;-1.586;2022-12-15T02:03:55;3.60;;;1.30;;
71164;SDS011;58859;55.132;-1.586;2022-12-15T02:06:20;1.30;;;1.15;;
71164;SDS011;58859;55.132;-1.586;2022-12-15T02:08:46;1.67;;;1.50;;
71164;SDS011;58859;55.132;-1.586;2022-12-15T02:11:31;1.27;;;1.15;;
71164;SDS011;58859;55.132;-1.586;2022-12-15T02:14:04;2.13;;;1.70;;
71164;SDS011;58859;55.132;-1.586;2022-12-15T02:28:00;1.50;;;1.40;;
71164;SDS011;58859;55.132;-1.586;2022-12-15T02:30:50;1.15;;;1.15;;
71164;SDS011;58859;55.132;-1.586;2022-12-15T02:33:59;2.03;;;1.05;;
71164;SDS011;58859;55.132;-1.586;2022-12-15T02:36:37;1.50;;;1.33;;
71164;SDS011;58859;55.132;-1.586;2022-12-15T02:39:04;1.63;;;1.50;;
71164;SDS011;58859;55.132;-1.586;2022-12-15T02:41:37;1.80;;;1.63;;
71164;SDS011;58859;55.132;-1.586;2022-12-15T02:44:11;3.42;;;1.77;;
71164;SDS011;58859;55.132;-1.586;2022-12-15T02:47:13;1.90;;;1.70;;
71164;SDS011;58859;55.132;-1.586;2022-12-15T02:57:58;1.40;;;1.40;;
71164;SDS011;58859;55.132;-1.586;2022-12-15T03:00:32;3.42;;;1.75;;
71164;SDS011;58859;55.132;-1.586;2022-12-15T03:03:04;3.63;;;1.60;;
71164;SDS011;58859;55.132;-1.586;2022-12-15T03:05:30;2.10;;;2.00;;
71164;SDS011;58859;55.132;-1.586;2022-12-15T03:07:56;1.58;;;1.45;;
71164;SDS011;58859;55.132;-1.586;2022-12-15T03:10:22;3.23;;;1.77;;
71164;SDS011;58859;55.132;-1.586;2022-12-15T03:12:48;3.75;;;1.70;;
71164;SDS011;58859;55.132;-1.586;2022-12-15T03:15:18;3.78;;;1.73;;
71164;SDS011;58859;55.132;-1.586;2022-12-15T03:17:43;2.70;;;1.30;;
71164;SDS011;58859;55.132;-1.586;2022-12-15T03:20:09;1.57;;;1.47;;
71164;SDS011;58859;55.132;-1.586;2022-12-15T03:22:35;3.15;;;1.20;;
71164;SDS011;58859;55.132;-1.586;2022-12-15T03:25:01;1.98;;;1.33;;
71164;SDS011;58859;55.132;-1.586;2022-12-15T03:27:27;2.47;;;1.42;;
71164;SDS011;58859;55.132;-1.586;2022-12-15T03:29:53;1.37;;;1.27;;
71164;SDS011;58859;55.132;-1.586;2022-12-15T03:32:18;1.57;;;1.50;;
71164;SDS011;58859;55.132;-1.586;2022-12-15T03:34:44;0.97;;;0.90;;
71164;SDS011;58859;55.132;-1.586;2022-12-15T03:37:09;1.42;;;1.35;;
71164;SDS011;58859;55.132;-1.586;2022-12-15T03:39:35;2.40;;;1.40;;
71164;SDS011;58859;55.132;-1.586;2022-12-15T03:42:00;3.20;;;1.47;;
71164;SDS011;58859;55.132;-1.586;2022-12-15T03:44:26;1.63;;;1.57;;
71164;SDS011;58859;55.132;-1.586;2022-12-15T03:46:51;0.77;;;0.77;;
71164;SDS011;58859;55.132;-1.586;2022-12-15T03:49:16;1.65;;;1.55;;
71164;SDS011;58859;55.132;-1.586;2022-12-15T03:51:42;2.13;;;1.30;;
71164;SDS011;58859;55.132;-1.586;2022-12-15T03:54:07;2.93;;;1.30;;
71164;SDS011;58859;55.132;-1.586;2022-12-15T03:56:32;1.50;;;1.40;;
71164;SDS011;58859;55.132;-1.586;2022-12-15T03:58:58;3.20;;;1.60;;
71164;SDS011;58859;55.132;-1.586;2022-12-15T04:01:30;1.77;;;1.25;;
71164;SDS011;58859;55.132;-1.586;2022-12-15T04:03:57;1.10;;;1.10;;
71164;SDS011;58859;55.132;-1.586;2022-12-15T04:06:23;1.55;;;0.90;;
71164;SDS011;58859;55.132;-1.586;2022-12-15T04:08:49;1.43;;;1.33;;
71164;SDS011;58859;55.132;-1.586;2022-12-15T04:11:14;1.60;;;1.50;;
71164;SDS011;58859;55.132;-1.586;2022-12-15T04:13:40;1.83;;;1.73;;
71164;SDS011;58859;55.132;-1.586;2022-12-15T04:16:05;2.07;;;1.97;;
71164;SDS011;58859;55.132;-1.586;2022-12-15T04:18:31;2.85;;;1.30;;
71164;SDS011;58859;55.132;-1.586;2022-12-15T04:20:56;2.47;;;1.23;;
71164;SDS011;58859;55.132;-1.586;2022-12-15T04:23:22;2.40;;;1.37;;
71164;SDS011;58859;55.132;-1.586;2022-12-15T04:25:48;2.05;;;1.55;;
71164;SDS011;58859;55.132;-1.586;2022-12-15T04:28:32;1.90;;;1.37;;
71164;SDS011;58859;55.132;-1.586;2022-12-15T04:31:20;0.93;;;0.93;;
71164;SDS011;58859;55.132;-1.586;2022-12-15T04:34:14;4.22;;;2.08;;
71164;SDS011;58859;55.132;-1.586;2022-12-15T04:37:00;1.67;;;1.20;;
71164;SDS011;58859;55.132;-1.586;2022-12-15T04:39:48;2.00;;;1.52;;
71164;SDS011;58859;55.132;-1.586;2022-12-15T04:42:34;1.90;;;1.23;;
71164;SDS011;58859;55.132;-1.586;2022-12-15T04:45:20;2.20;;;1.42;;
71164;SDS011;58859;55.132;-1.586;2022-12-15T04:48:05;2.70;;;1.83;;
71164;SDS011;58859;55.132;-1.586;2022-12-15T04:50:49;4.80;;;2.08;;
71164;SDS011;58859;55.132;-1.586;2022-12-15T04:53:33;4.07;;;1.55;;
71164;SDS011;58859;55.132;-1.586;2022-12-15T04:56:17;1.53;;;1.37;;
71164;SDS011;58859;55.132;-1.586;2022-12-15T04:59:01;1.50;;;0.98;;
71164;SDS011;58859;55.132;-1.586;2022-12-15T05:01:45;1.95;;;1.17;;
71164;SDS011;58859;55.132;-1.586;2022-12-15T05:04:30;3.38;;;1.00;;
71164;SDS011;58859;55.132;-1.586;2022-12-15T05:07:14;2.05;;;1.55;;
71164;SDS011;58859;55.132;-1.586;2022-12-15T05:09:58;2.00;;;1.13;;
71164;SDS011;58859;55.132;-1.586;2022-12-15T05:12:42;2.38;;;1.02;;
71164;SDS011;58859;55.132;-1.586;2022-12-15T05:15:27;0.70;;;0.70;;
71164;SDS011;58859;55.132;-1.586;2022-12-15T05:18:11;3.20;;;1.00;;
71164;SDS011;58859;55.132;-1.586;2022-12-15T05:20:56;2.53;;;1.17;;
71164;SDS011;58859;55.132;-1.586;2022-12-15T05:23:41;0.77;;;0.77;;
71164;SDS011;58859;55.132;-1.586;2022-12-15T05:26:25;2.30;;;0.90;;
71164;SDS011;58859;55.132;-1.586;2022-12-15T05:29:09;2.05;;;1.27;;
71164;SDS011;58859;55.132;-1.586;2022-12-15T05:31:53;1.58;;;0.93;;
71164;SDS011;58859;55.132;-1.586;2022-12-15T05:34:29;1.23;;;0.83;;
71164;SDS011;58859;55.132;-1.586;2022-12-15T05:36:56;0.82;;;0.82;;
71164;SDS011;58859;55.132;-1.586;2022-12-15T05:39:23;4.35;;;1.30;;
71164;SDS011;58859;55.132;-1.586;2022-12-15T05:41:49;1.60;;;1.17;;
71164;SDS011;58859;55.132;-1.586;2022-12-15T05:44:16;1.73;;;1.25;;
71164;SDS011;58859;55.132;-1.586;2022-12-15T05:46:42;1.27;;;1.20;;
71164;SDS011;58859;55.132;-1.586;2022-12-15T05:49:08;1.55;;;0.93;;
71164;SDS011;58859;55.132;-1.586;2022-12-15T05:51:36;1.15;;;1.00;;
71164;SDS011;58859;55.132;-1.586;2022-12-15T05:54:02;2.80;;;1.50;;
71164;SDS011;58859;55.132;-1.586;2022-12-15T05:56:28;1.50;;;1.15;;
71164;SDS011;58859;55.132;-1.586;2022-12-15T05:58:54;4.47;;;1.43;;
71164;SDS011;58859;55.132;-1.586;2022-12-15T06:01:20;2.25;;;1.25;;
71164;SDS011;58859;55.132;-1.586;2022-12-15T06:03:46;1.17;;;1.00;;
71164;SDS011;58859;55.132;-1.586;2022-12-15T06:06:11;1.05;;;0.93;;
71164;SDS011;58859;55.132;-1.586;2022-12-15T06:08:38;1.30;;;1.20;;
71164;SDS011;58859;55.132;-1.586;2022-12-15T06:11:05;2.08;;;1.35;;
71164;SDS011;58859;55.132;-1.586;2022-12-15T06:13:31;3.60;;;0.95;;
71164;SDS011;58859;55.132;-1.586;2022-12-15T06:16:02;1.13;;;1.13;;
71164;SDS011;58859;55.132;-1.586;2022-12-15T06:18:36;0.88;;;0.88;;
71164;SDS011;58859;55.132;-1.586;2022-12-15T06:21:07;4.57;;;1.13;;
71164;SDS011;58859;55.132;-1.586;2022-12-15T06:23:35;0.70;;;0.60;;
71164;SDS011;58859;55.132;-1.586;2022-12-15T06:29:02;3.75;;;1.02;;
71164;SDS011;58859;55.132;-1.586;2022-12-15T06:31:29;1.20;;;1.20;;
71164;SDS011;58859;55.132;-1.586;2022-12-15T06:33:56;2.67;;;1.00;;
71164;SDS011;58859;55.132;-1.586;2022-12-15T06:36:21;0.82;;;0.82;;
71164;SDS011;58859;55.132;-1.586;2022-12-15T06:38:50;0.80;;;0.80;;
71164;SDS011;58859;55.132;-1.586;2022-12-15T06:41:16;0.95;;;0.95;;
71164;SDS011;58859;55.132;-1.586;2022-12-15T06:43:48;3.65;;;0.90;;
71164;SDS011;58859;55.132;-1.586;2022-12-15T06:46:14;1.25;;;0.80;;
71164;SDS011;58859;55.132;-1.586;2022-12-15T06:48:40;0.90;;;0.90;;
71164;SDS011;58859;55.132;-1.586;2022-12-15T06:51:08;1.85;;;1.10;;
71164;SDS011;58859;55.132;-1.586;2022-12-15T06:53:35;2.15;;;0.85;;
71164;SDS011;58859;55.132;-1.586;2022-12-15T06:56:02;1.40;;;0.85;;
71164;SDS011;58859;55.132;-1.586;2022-12-15T06:58:29;0.87;;;0.87;;
71164;SDS011;58859;55.132;-1.586;2022-12-15T07:00:54;0.90;;;0.90;;
71164;SDS011;58859;55.132;-1.586;2022-12-15T07:03:20;1.13;;;1.00;;
71164;SDS011;58859;55.132;-1.586;2022-12-15T07:05:46;2.90;;;0.80;;
71164;SDS011;58859;55.132;-1.586;2022-12-15T07:08:12;2.42;;;0.98;;
71164;SDS011;58859;55.132;-1.586;2022-12-15T07:10:39;0.63;;;0.63;;
71164;SDS011;58859;55.132;-1.586;2022-12-15T07:13:07;2.47;;;1.33;;
71164;SDS011;58859;55.132;-1.586;2022-12-15T07:15:33;2.53;;;1.00;;
71164;SDS011;58859;55.132;-1.586;2022-12-15T07:17:59;3.67;;;2.03;;
71164;SDS011;58859;55.132;-1.586;2022-12-15T07:20:24;0.75;;;0.75;;
71164;SDS011;58859;55.132;-1.586;2022-12-15T07:22:50;2.33;;;1.73;;
71164;SDS011;58859;55.132;-1.586;2022-12-15T07:25:16;0.83;;;0.83;;
71164;SDS011;58859;55.132;-1.586;2022-12-15T07:27:43;3.92;;;0.80;;
71164;SDS011;58859;55.132;-1.586;2022-12-15T07:30:09;1.00;;;0.80;;
71164;SDS011;58859;55.132;-1.586;2022-12-15T07:32:35;0.90;;;0.90;;
71164;SDS011;58859;55.132;-1.586;2022-12-15T07:35:00;1.60;;;0.83;;
71164;SDS011;58859;55.132;-1.586;2022-12-15T07:37:28;1.40;;;1.30;;
71164;SDS011;58859;55.132;-1.586;2022-12-15T07:39:54;0.87;;;0.73;;
71164;SDS011;58859;55.132;-1.586;2022-12-15T07:42:19;2.03;;;1.23;;
71164;SDS011;58859;55.132;-1.586;2022-12-15T07:44:44;1.30;;;0.70;;
71164;SDS011;58859;55.132;-1.586;2022-12-15T07:47:10;2.15;;;0.70;;
71164;SDS011;58859;55.132;-1.586;2022-12-15T07:49:36;1.30;;;1.23;;
71164;SDS011;58859;55.132;-1.586;2022-12-15T07:52:01;2.03;;;1.10;;
71164;SDS011;58859;55.132;-1.586;2022-12-15T07:54:27;0.90;;;0.90;;
71164;SDS011;58859;55.132;-1.586;2022-12-15T07:56:53;1.25;;;1.15;;
71164;SDS011;58859;55.132;-1.586;2022-12-15T07:59:18;2.23;;;1.30;;
71164;SDS011;58859;55.132;-1.586;2022-12-15T08:01:44;0.60;;;0.60;;
71164;SDS011;58859;55.132;-1.586;2022-12-15T08:04:09;1.53;;;0.90;;
71164;SDS011;58859;55.132;-1.586;2022-12-15T08:06:35;1.33;;;1.13;;
71164;SDS011;58859;55.132;-1.586;2022-12-15T08:09:00;1.97;;;1.27;;
71164;SDS011;58859;55.132;-1.586;2022-12-15T08:11:25;1.10;;;0.80;;
71164;SDS011;58859;55.132;-1.586;2022-12-15T08:13:52;1.20;;;1.10;;
71164;SDS011;58859;55.132;-1.586;2022-12-15T08:16:17;1.43;;;0.77;;
71164;SDS011;58859;55.132;-1.586;2022-12-15T08:18:43;1.45;;;0.98;;
71164;SDS011;58859;55.132;-1.586;2022-12-15T08:21:09;0.83;;;0.80;;
71164;SDS011;58859;55.132;-1.586;2022-12-15T08:23:35;4.53;;;1.15;;
71164;SDS011;58859;55.132;-1.586;2022-12-15T08:26:08;1.63;;;1.50;;
71164;SDS011;58859;55.132;-1.586;2022-12-15T08:28:35;0.95;;;0.90;;
71164;SDS011;58859;55.132;-1.586;2022-12-15T08:31:34;1.75;;;1.17;;
71164;SDS011;58859;55.132;-1.586;2022-12-15T08:33:54;1.17;;;1.15;;
71164;SDS011;58859;55.132;-1.586;2022-12-15T08:36:20;1.03;;;0.60;;
71164;SDS011;58859;55.132;-1.586;2022-12-15T08:38:45;0.77;;;0.77;;
71164;SDS011;58859;55.132;-1.586;2022-12-15T08:41:12;1.13;;;1.13;;
71164;SDS011;58859;55.132;-1.586;2022-12-15T08:43:39;0.65;;;0.65;;
71164;SDS011;58859;55.132;-1.586;2022-12-15T08:46:05;1.95;;;1.00;;
71164;SDS011;58859;55.132;-1.586;2022-12-15T08:48:31;1.60;;;1.30;;
71164;SDS011;58859;55.132;-1.586;2022-12-15T08:50:57;1.40;;;0.80;;
71164;SDS011;58859;55.132;-1.586;2022-12-15T08:53:23;3.85;;;1.20;;
71164;SDS011;58859;55.132;-1.586;2022-12-15T08:55:49;0.88;;;0.85;;
71164;SDS011;58859;55.132;-1.586;2022-12-15T08:58:15;3.73;;;1.50;;
71164;SDS011;58859;55.132;-1.586;2022-12-15T09:00:40;2.77;;;1.50;;
71164;SDS011;58859;55.132;-1.586;2022-12-15T09:03:05;1.97;;;1.60;;
71164;SDS011;58859;55.132;-1.586;2022-12-15T09:05:33;1.77;;;1.20;;
71164;SDS011;58859;55.132;-1.586;2022-12-15T09:07:59;1.52;;;1.50;;
71164;SDS011;58859;55.132;-1.586;2022-12-15T09:10:24;1.87;;;1.20;;
71164;SDS011;58859;55.132;-1.586;2022-12-15T09:12:50;5.17;;;1.80;;
71164;SDS011;58859;55.132;-1.586;2022-12-15T09:15:15;3.97;;;1.45;;
71164;SDS011;58859;55.132;-1.586;2022-12-15T09:17:41;0.90;;;0.90;;
71164;SDS011;58859;55.132;-1.586;2022-12-15T09:20:07;1.20;;;1.10;;
71164;SDS011;58859;55.132;-1.586;2022-12-15T09:22:33;2.97;;;1.37;;
71164;SDS011;58859;55.132;-1.586;2022-12-15T09:25:00;1.15;;;1.10;;
71164;SDS011;58859;55.132;-1.586;2022-12-15T09:27:26;1.30;;;1.20;;
71164;SDS011;58859;55.132;-1.586;2022-12-15T09:29:52;1.60;;;1.50;;
71164;SDS011;58859;55.132;-1.586;2022-12-15T09:32:18;1.13;;;0.90;;
71164;SDS011;58859;55.132;-1.586;2022-12-15T09:34:43;3.23;;;0.90;;
71164;SDS011;58859;55.132;-1.586;2022-12-15T09:37:09;1.15;;;0.98;;
71164;SDS011;58859;55.132;-1.586;2022-12-15T09:39:35;1.17;;;0.50;;
71164;SDS011;58859;55.132;-1.586;2022-12-15T09:42:01;1.10;;;0.80;;
71164;SDS011;58859;55.132;-1.586;2022-12-15T09:44:27;0.60;;;0.60;;
71164;SDS011;58859;55.132;-1.586;2022-12-15T09:51:56;1.05;;;1.05;;
71164;SDS011;58859;55.132;-1.586;2022-12-15T09:54:26;1.45;;;1.27;;
71164;SDS011;58859;55.132;-1.586;2022-12-15T09:56:56;2.28;;;0.88;;
71164;SDS011;58859;55.132;-1.586;2022-12-15T09:59:25;1.05;;;0.93;;
71164;SDS011;58859;55.132;-1.586;2022-12-15T10:02:05;1.57;;;1.33;;
71164;SDS011;58859;55.132;-1.586;2022-12-15T10:04:55;1.05;;;0.95;;
71164;SDS011;58859;55.132;-1.586;2022-12-15T10:07:27;1.33;;;1.30;;
71164;SDS011;58859;55.132;-1.586;2022-12-15T10:09:55;1.80;;;1.58;;
71164;SDS011;58859;55.132;-1.586;2022-12-15T10:12:23;0.93;;;0.90;;
71164;SDS011;58859;55.132;-1.586;2022-12-15T10:15:12;1.30;;;1.20;;
71164;SDS011;58859;55.132;-1.586;2022-12-15T10:20:19;2.58;;;1.42;;
71164;SDS011;58859;55.132;-1.586;2022-12-15T10:22:48;4.30;;;1.03;;
71164;SDS011;58859;55.132;-1.586;2022-12-15T10:28:23;2.47;;;1.70;;
71164;SDS011;58859;55.132;-1.586;2022-12-15T10:30:29;2.25;;;0.90;;
71164;SDS011;58859;55.132;-1.586;2022-12-15T10:35:37;0.93;;;0.93;;
71164;SDS011;58859;55.132;-1.586;2022-12-15T10:38:05;1.35;;;1.17;;
71164;SDS011;58859;55.132;-1.586;2022-12-15T10:43:42;1.83;;;1.38;;
71164;SDS011;58859;55.132;-1.586;2022-12-15T10:51:30;2.63;;;1.10;;
71164;SDS011;58859;55.132;-1.586;2022-12-15T10:56:31;1.80;;;1.30;;
71164;SDS011;58859;55.132;-1.586;2022-12-15T10:58:58;1.20;;;0.90;;
71164;SDS011;58859;55.132;-1.586;2022-12-15T11:01:45;1.50;;;0.60;;
71164;SDS011;58859;55.132;-1.586;2022-12-15T11:04:30;0.80;;;0.80;;
71164;SDS011;58859;55.132;-1.586;2022-12-15T11:07:00;0.80;;;0.80;;
71164;SDS011;58859;55.132;-1.586;2022-12-15T11:09:31;2.45;;;1.20;;
71164;SDS011;58859;55.132;-1.586;2022-12-15T11:11:58;1.42;;;1.20;;
71164;SDS011;58859;55.132;-1.586;2022-12-15T11:14:47;1.35;;;1.17;;
71164;SDS011;58859;55.132;-1.586;2022-12-15T11:17:14;1.00;;;0.90;;
71164;SDS011;58859;55.132;-1.586;2022-12-15T11:19:55;0.80;;;0.80;;
71164;SDS011;58859;55.132;-1.586;2022-12-15T11:27:55;0.95;;;0.73;;
71164;SDS011;58859;55.132;-1.586;2022-12-15T11:30:25;1.03;;;0.87;;
71164;SDS011;58859;55.132;-1.586;2022-12-15T11:32:56;3.03;;;0.82;;
71164;SDS011;58859;55.132;-1.586;2022-12-15T11:35:37;0.80;;;0.80;;
71164;SDS011;58859;55.132;-1.586;2022-12-15T11:40:57;1.70;;;1.10;;
71164;SDS011;58859;55.132;-1.586;2022-12-15T11:48:38;1.00;;;1.00;;
71164;SDS011;58859;55.132;-1.586;2022-12-15T11:51:14;3.05;;;0.82;;
71164;SDS011;58859;55.132;-1.586;2022-12-15T12:01:41;1.50;;;1.02;;
71164;SDS011;58859;55.132;-1.586;2022-12-15T12:15:28;1.80;;;0.80;;
71164;SDS011;58859;55.132;-1.586;2022-12-15T12:17:57;1.23;;;1.13;;
71164;SDS011;58859;55.132;-1.586;2022-12-15T12:20:34;1.55;;;0.70;;
71164;SDS011;58859;55.132;-1.586;2022-12-15T12:23:26;1.27;;;0.68;;
71164;SDS011;58859;55.132;-1.586;2022-12-15T12:25:59;2.13;;;0.80;;
71164;SDS011;58859;55.132;-1.586;2022-12-15T12:28:47;3.30;;;0.57;;
71164;SDS011;58859;55.132;-1.586;2022-12-15T12:34:23;1.02;;;0.98;;
71164;SDS011;58859;55.132;-1.586;2022-12-15T12:36:50;3.40;;;1.40;;
71164;SDS011;58859;55.132;-1.586;2022-12-15T12:39:18;2.38;;;1.50;;
71164;SDS011;58859;55.132;-1.586;2022-12-15T12:41:56;1.83;;;1.30;;
71164;SDS011;58859;55.132;-1.586;2022-12-15T12:44:32;1.43;;;1.33;;
71164;SDS011;58859;55.132;-1.586;2022-12-15T12:47:03;5.63;;;2.08;;
71164;SDS011;58859;55.132;-1.586;2022-12-15T12:52:21;3.40;;;1.80;;
71164;SDS011;58859;55.132;-1.586;2022-12-15T12:57:38;3.07;;;1.90;;
71164;SDS011;58859;55.132;-1.586;2022-12-15T13:05:32;5.13;;;1.90;;
71164;SDS011;58859;55.132;-1.586;2022-12-15T13:10:29;3.03;;;2.30;;
71164;SDS011;58859;55.132;-1.586;2022-12-15T13:12:55;2.10;;;1.90;;
71164;SDS011;58859;55.132;-1.586;2022-12-15T13:17:59;1.63;;;1.40;;
71164;SDS011;58859;55.132;-1.586;2022-12-15T13:20:31;5.33;;;1.90;;
71164;SDS011;58859;55.132;-1.586;2022-12-15T13:33:43;2.60;;;1.75;;
71164;SDS011;58859;55.132;-1.586;2022-12-15T13:36:08;3.83;;;2.40;;
71164;SDS011;58859;55.132;-1.586;2022-12-15T13:38:50;4.50;;;2.95;;
71164;SDS011;58859;55.132;-1.586;2022-12-15T13:41:21;2.93;;;2.60;;
71164;SDS011;58859;55.132;-1.586;2022-12-15T13:43:49;2.80;;;2.10;;
71164;SDS011;58859;55.132;-1.586;2022-12-15T13:46:17;4.15;;;2.35;;
71164;SDS011;58859;55.132;-1.586;2022-12-15T13:48:52;2.88;;;1.20;;
71164;SDS011;58859;55.132;-1.586;2022-12-15T13:51:45;1.13;;;0.80;;
71164;SDS011;58859;55.132;-1.586;2022-12-15T13:54:18;2.17;;;1.13;;
71164;SDS011;58859;55.132;-1.586;2022-12-15T13:56:53;3.28;;;0.88;;
71164;SDS011;58859;55.132;-1.586;2022-12-15T14:01:57;2.80;;;1.20;;
71164;SDS011;58859;55.132;-1.586;2022-12-15T14:04:23;2.53;;;1.13;;
71164;SDS011;58859;55.132;-1.586;2022-12-15T14:09:14;5.20;;;1.60;;
71164;SDS011;58859;55.132;-1.586;2022-12-15T14:11:44;1.13;;;0.85;;
71164;SDS011;58859;55.132;-1.586;2022-12-15T14:14:17;1.17;;;1.10;;
71164;SDS011;58859;55.132;-1.586;2022-12-15T14:16:59;0.70;;;0.68;;
71164;SDS011;58859;55.132;-1.586;2022-12-15T14:19:26;2.40;;;1.10;;
71164;SDS011;58859;55.132;-1.586;2022-12-15T14:22:01;1.33;;;0.73;;
71164;SDS011;58859;55.132;-1.586;2022-12-15T14:24:30;1.57;;;0.87;;
71164;SDS011;58859;55.132;-1.586;2022-12-15T14:26:57;1.10;;;0.95;;
71164;SDS011;58859;55.132;-1.586;2022-12-15T14:29:23;0.77;;;0.70;;
71164;SDS011;58859;55.132;-1.586;2022-12-15T14:31:53;1.60;;;1.20;;
71164;SDS011;58859;55.132;-1.586;2022-12-15T14:34:30;3.70;;;1.52;;
71164;SDS011;58859;55.132;-1.586;2022-12-15T14:36:58;1.53;;;1.00;;
71164;SDS011;58859;55.132;-1.586;2022-12-15T14:39:34;1.88;;;0.95;;
71164;SDS011;58859;55.132;-1.586;2022-12-15T14:42:03;2.88;;;1.13;;
71164;SDS011;58859;55.132;-1.586;2022-12-15T14:44:32;1.30;;;0.95;;
71164;SDS011;58859;55.132;-1.586;2022-12-15T14:47:01;1.73;;;0.93;;
71164;SDS011;58859;55.132;-1.586;2022-12-15T14:49:32;2.43;;;0.97;;
71164;SDS011;58859;55.132;-1.586;2022-12-15T14:52:03;3.00;;;1.10;;
71164;SDS011;58859;55.132;-1.586;2022-12-15T14:54:36;2.25;;;0.93;;
71164;SDS011;58859;55.132;-1.586;2022-12-15T14:57:12;2.03;;;1.38;;
71164;SDS011;58859;55.132;-1.586;2022-12-15T14:59:43;3.90;;;0.95;;
71164;SDS011;58859;55.132;-1.586;2022-12-15T15:02:16;1.93;;;0.93;;
71164;SDS011;58859;55.132;-1.586;2022-12-15T15:04:53;0.80;;;0.80;;
71164;SDS011;58859;55.132;-1.586;2022-12-15T15:07:20;3.45;;;1.08;;
71164;SDS011;58859;55.132;-1.586;2022-12-15T15:09:46;1.23;;;1.08;;
71164;SDS011;58859;55.132;-1.586;2022-12-15T15:12:13;1.93;;;0.80;;
71164;SDS011;58859;55.132;-1.586;2022-12-15T15:14:41;1.02;;;0.95;;
71164;SDS011;58859;55.132;-1.586;2022-12-15T15:19:57;0.55;;;0.55;;
71164;SDS011;58859;55.132;-1.586;2022-12-15T15:25:02;2.22;;;0.80;;
71164;SDS011;58859;55.132;-1.586;2022-12-15T15:30:45;2.20;;;0.90;;
71164;SDS011;58859;55.132;-1.586;2022-12-15T15:33:17;1.20;;;1.20;;
71164;SDS011;58859;55.132;-1.586;2022-12-15T15:35:45;1.03;;;0.90;;
71164;SDS011;58859;55.132;-1.586;2022-12-15T15:40:55;3.10;;;1.50;;
71164;SDS011;58859;55.132;-1.586;2022-12-15T15:43:26;3.95;;;0.90;;
71164;SDS011;58859;55.132;-1.586;2022-12-15T15:46:02;1.40;;;1.30;;
71164;SDS011;58859;55.132;-1.586;2022-12-15T15:48:30;2.30;;;1.10;;
71164;SDS011;58859;55.132;-1.586;2022-12-15T15:50:58;2.25;;;1.15;;
71164;SDS011;58859;55.132;-1.586;2022-12-15T15:53:24;2.75;;;2.28;;
71164;SDS011;58859;55.132;-1.586;2022-12-15T15:55:51;9.00;;;5.50;;
71164;SDS011;58859;55.132;-1.586;2022-12-15T15:58:17;14.90;;;6.78;;
71164;SDS011;58859;55.132;-1.586;2022-12-15T16:00:42;16.63;;;7.47;;
71164;SDS011;58859;55.132;-1.586;2022-12-15T16:03:08;13.30;;;7.17;;
71164;SDS011;58859;55.132;-1.586;2022-12-15T16:05:34;13.57;;;7.20;;
71164;SDS011;58859;55.132;-1.586;2022-12-15T16:08:00;13.75;;;7.35;;
71164;SDS011;58859;55.132;-1.586;2022-12-15T16:10:26;13.70;;;6.47;;
71164;SDS011;58859;55.132;-1.586;2022-12-15T16:12:55;15.17;;;7.23;;
71164;SDS011;58859;55.132;-1.586;2022-12-15T16:15:23;15.50;;;7.10;;
71164;SDS011;58859;55.132;-1.586;2022-12-15T16:17:52;11.57;;;6.03;;
71164;SDS011;58859;55.132;-1.586;2022-12-15T16:20:19;12.50;;;5.97;;
71164;SDS011;58859;55.132;-1.586;2022-12-15T16:22:47;13.13;;;6.55;;
71164;SDS011;58859;55.132;-1.586;2022-12-15T16:25:19;7.15;;;4.97;;
71164;SDS011;58859;55.132;-1.586;2022-12-15T16:27:45;5.82;;;3.92;;
71164;SDS011;58859;55.132;-1.586;2022-12-15T16:30:19;5.63;;;3.70;;
71164;SDS011;58859;55.132;-1.586;2022-12-15T16:32:47;3.53;;;2.78;;
71164;SDS011;58859;55.132;-1.586;2022-12-15T16:35:13;5.70;;;2.38;;
71164;SDS011;58859;55.132;-1.586;2022-12-15T16:37:38;4.20;;;1.95;;
71164;SDS011;58859;55.132;-1.586;2022-12-15T16:40:17;2.80;;;1.97;;
71164;SDS011;58859;55.132;-1.586;2022-12-15T16:42:46;4.85;;;1.95;;
71164;SDS011;58859;55.132;-1.586;2022-12-15T16:45:16;5.22;;;2.35;;
71164;SDS011;58859;55.132;-1.586;2022-12-15T16:47:45;4.10;;;2.35;;
71164;SDS011;58859;55.132;-1.586;2022-12-15T16:50:11;8.75;;;4.68;;
71164;SDS011;58859;55.132;-1.586;2022-12-15T16:52:41;14.10;;;5.23;;
71164;SDS011;58859;55.132;-1.586;2022-12-15T16:55:11;14.25;;;7.20;;
71164;SDS011;58859;55.132;-1.586;2022-12-15T16:57:42;8.00;;;3.97;;
71164;SDS011;58859;55.132;-1.586;2022-12-15T17:00:16;3.57;;;2.93;;
71164;SDS011;58859;55.132;-1.586;2022-12-15T17:02:43;6.32;;;3.65;;